• Join FlightAware (Why Join?)
  • Login
  • US Flag 
06:10PM EDT


 

Airport Tracker/Info


-or-


 

Live Flight TrackerFlight Track Log ✈ DAL6068 ✈ 19-Aug-2013 ✈ KDTW - KRDU

Flight Track Log - Related Links

Times and Time Zones

All times are in EDT time to prevent confusion due to time zone crossing. See the DAL6068 flight status page for this flight to view local times or setup timezone preferences in your user account.

Time Position Orientation Groundspeed Altitude Reporting Facility
EDT Latitude Longitude Course Direction KTS MPH feet Rate Location/Type
02:13PM 42.1953 -83.3581 98° East 163 188 1,400  Level Cleveland Center
02:14PM 42.1575 -83.3675 190° South 193 222 3,000 1,860 Climbing Cleveland Center
02:15PM 42.0947 -83.3844 191° South 221 254 5,100 1,680 Climbing Cleveland Center
02:16PM 42.1461 -82.9437 98° East  Level FlightAware Approximate
02:16PM 42.0606 -83.3242 127° Southeast 266 306 6,700  Level Cleveland Center
02:17PM 42.1307 -82.8060 109° East  Level FlightAware Approximate
02:17PM 42.0631 -83.2178 88° East 278 320 8,900  Level Cleveland Center
02:18PM 42.1079 -82.6705 98° East  Level FlightAware Approximate
02:18PM 42.0653 -83.1200 88° East 281 323 10,400  Level Cleveland Center
02:19PM 42.0700 -83.0000 87° East 300 345 11,300 960 Climbing Cleveland Center
02:20PM 42.0747 -82.8686 87° East 325 374 12,400 1,260 Climbing Cleveland Center
02:21PM 42.0794 -82.7344 87° East 346 398 13,900 1,440 Climbing Cleveland Center
02:22PM 42.0819 -82.6003 89° East 352 405 15,300 1,440 Climbing Cleveland Center
02:23PM 42.0842 -82.4661 89° East 357 411 16,800 1,320 Climbing Cleveland Center
02:24PM 42.0633 -82.3311 102° East 357 411 18,000 1,320 Climbing Cleveland Center
02:25PM 42.0444 -82.1992 101° East 357 411 19,500 1,500 Climbing Cleveland Center
02:26PM 42.0169 -82.0728 106° East 357 411 21,000 1,380 Climbing Cleveland Center
02:27PM 41.9367 -81.9872 142° Southeast 345 397 22,300 1,200 Climbing Cleveland Center
02:28PM 41.8522 -81.9044 144° Southeast 366 421 23,500 1,140 Climbing Cleveland Center
02:29PM 41.7594 -81.8136 144° Southeast 378 435 24,600 1,080 Climbing Cleveland Center
02:30PM 41.6686 -81.7311 146° Southeast 383 441 25,700 1,080 Climbing Cleveland Center
02:31PM 41.5819 -81.6464 144° Southeast 395 455 26,800 1,020 Climbing Cleveland Center
02:32PM 41.4825 -81.5808 154° Southeast 390 449 27,800 1,020 Climbing Cleveland Center
02:33PM 41.3828 -81.5186 155° Southeast 390 449 28,900 960 Climbing Cleveland Center
02:34PM 41.2936 -81.4619 154° Southeast 390 449 29,800 960 Climbing Cleveland Center
02:35PM 41.1919 -81.4053 157° South 395 455 30,900 1,080 Climbing Cleveland Center
02:36PM 41.0922 -81.3464 156° South 395 455 32,000 1,020 Climbing Cleveland Center
02:37PM 40.9925 -81.2900 157° South 395 455 33,000 1,020 Climbing Cleveland Center
02:38PM 40.8825 -81.2258 156° South 395 455 34,100 960 Climbing Cleveland Center
02:39PM 40.7847 -81.1672 156° South 395 455 35,000 420 Climbing Cleveland Center
02:40PM 40.6808 -81.1033 155° Southeast 395 455 35,000  Level Cleveland Center
02:41PM 40.5750 -81.0422 156° South 415 478 35,000  Level Cleveland Center
02:42PM 40.4625 -80.9761 156° South 428 493 35,000  Level Cleveland Center
02:43PM 40.3481 -80.9100 156° South 440 506 35,000  Level Cleveland Center
02:44PM 40.2336 -80.8414 155° Southeast 449 517 35,000  Level Cleveland Center
02:45PM 40.1150 -80.7814 159° South 456 525 35,000  Level Cleveland Center
02:46PM 40.0003 -80.7078 154° Southeast 456 525 35,000  Level Cleveland Center
02:47PM 39.9003 -80.6508 156° South 456 525 35,000  Level Cleveland Center
02:48PM 39.7817 -80.5886 158° South 456 525 35,000  Level Cleveland Center
02:50PM 39.5994 -80.4908 158° South 439 505 35,000  Level Washington Center
02:51PM 39.4894 -80.4269 156° South 444 511 35,000  Level Washington Center
02:52PM 39.3753 -80.3656 157° South 444 511 35,000  Level Washington Center
02:53PM 39.2531 -80.2958 156° South 438 504 35,000  Level Washington Center
02:54PM 39.1469 -80.2328 155° Southeast 438 504 35,000  Level Washington Center
02:55PM 39.0347 -80.1722 157° South 438 504 35,000  Level Washington Center
02:56PM 38.9242 -80.1144 158° South 433 498 35,000 -300 Level Washington Center
02:57PM 38.8244 -80.1058 176° South 384 442 34,400 -900 Descending Washington Center
02:58PM 38.7183 -80.1019 178° South 384 442 33,200 -1,200 Descending Washington Center
02:59PM 38.6100 -80.1006 179° South 384 442 32,100 -1,140 Descending Washington Center
03:00PM 38.4994 -80.0992 179° South 389 448 31,000 -1,200 Descending Washington Center
03:01PM 38.3744 -80.0942 178° South 402 463 29,700 -1,200 Descending Washington Center
03:02PM 38.2558 -80.0922 179° South 413 475 28,600 -1,140 Descending Washington Center
03:03PM 38.1389 -80.0906 179° South 424 488 27,500 -840 Descending Washington Center
03:04PM 38.0328 -80.0894 180° South 424 488 27,000 -300 Descending Washington Center
03:05PM 37.9181 -80.0878 179° South 419 482 27,000  Level Washington Center
03:06PM 37.8014 -80.0836 178° South 419 482 27,000  Level Washington Center
03:07PM 37.6722 -80.0811 179° South 419 482 27,000 -300 Level Washington Center
03:08PM 37.5533 -80.0792 179° South 424 488 26,500 -720 Descending Washington Center
03:09PM 37.4303 -80.0772 179° South 430 495 25,600 -960 Descending Washington Center
03:10PM 37.3256 -80.0344 162° South 438 504 24,600 -840 Descending Washington Center
03:11PM 37.2381 -79.9119 132° Southeast 429 494 24,000 -660 Descending Washington Center
03:12PM 37.1633 -79.7881 127° Southeast 435 501 23,300 -1,140 Descending Washington Center
03:13PM 37.0783 -79.6531 128° Southeast 444 511 21,800 -1,440 Descending Washington Center
03:14PM 36.9989 -79.5292 129° Southeast 454 522 20,500 -1,380 Descending Washington Center
03:15PM 36.9236 -79.4033 127° Southeast 459 528 19,200 -1,380 Descending Washington Center
03:16PM 36.8561 -79.2986 129° Southeast 447 514 17,800 -1,260 Descending Washington Center
03:17PM 36.7864 -79.1892 128° Southeast 425 489 16,700 -1,260 Descending Washington Center
03:18PM 36.7186 -79.0847 129° Southeast 407 468 15,400 -1,500 Descending Washington Center
03:19PM 36.6436 -79.0064 140° Southeast 387 445 13,700 -2,220 Descending Washington Center
03:20PM 36.5547 -78.9817 167° South 332 382 11,300 -1,980 Descending Washington Center
03:21PM 36.4781 -78.9603 167° South 311 358 10,300 -720 Descending Washington Center
03:22PM 36.3953 -78.9336 165° South 241 277 9,900 -960 Descending Washington Center
03:23PM 36.3383 -78.8847 145° Southeast 247 284 8,300 -1,020 Descending Washington Center
03:24PM 36.2853 -78.8361 144° Southeast 257 296 8,000 -480 Descending Washington Center
03:25PM 36.2181 -78.7742 143° Southeast 257 296 7,300 -960 Descending Washington Center
03:26PM 36.1733 -78.7336 144° Southeast 244 281 6,100 -720 Descending Washington Center
03:27PM 36.1200 -78.6931 148° Southeast 223 257 6,000 -900 Descending Washington Center
03:28PM 36.0669 -78.6525 148° Southeast 219 252 4,400 -1,500 Descending Washington Center
03:29PM 36.0064 -78.6475 176° South 227 261 3,000 -960 Descending Washington Center
03:30PM 35.9658 -78.6894 220° Southwest 181 208 2,500 -780 Descending Washington Center
03:31PM 35.9333 -78.7319 227° Southwest 173 199 1,500 -900 Descending Washington Center
03:32PM 35.9011 -78.7692 223° Southwest 140 161 700 -840 Descending Washington Center